sensor_id;sensor_type;location;lat;lon;timestamp;temperature;humidity
20654;DHT22;21083;50.898;4.902;2022-10-31T00:00:06;16.20;99.90
20654;DHT22;21083;50.898;4.902;2022-10-31T00:02:33;16.10;99.90
20654;DHT22;21083;50.898;4.902;2022-10-31T00:05:00;16.10;99.90
20654;DHT22;21083;50.898;4.902;2022-10-31T00:07:27;16.00;99.90
20654;DHT22;21083;50.898;4.902;2022-10-31T00:09:55;16.10;99.90
20654;DHT22;21083;50.898;4.902;2022-10-31T00:12:22;16.10;99.90
20654;DHT22;21083;50.898;4.902;2022-10-31T00:14:49;16.00;99.90
20654;DHT22;21083;50.898;4.902;2022-10-31T00:17:16;16.00;99.90
20654;DHT22;21083;50.898;4.902;2022-10-31T00:19:45;16.00;99.90
20654;DHT22;21083;50.898;4.902;2022-10-31T00:22:12;16.00;99.90
20654;DHT22;21083;50.898;4.902;2022-10-31T00:24:39;16.00;99.90
20654;DHT22;21083;50.898;4.902;2022-10-31T00:27:07;16.00;99.90
20654;DHT22;21083;50.898;4.902;2022-10-31T00:29:34;16.00;99.90
20654;DHT22;21083;50.898;4.902;2022-10-31T00:32:01;16.00;99.90
20654;DHT22;21083;50.898;4.902;2022-10-31T00:34:28;16.00;99.90
20654;DHT22;21083;50.898;4.902;2022-10-31T00:36:55;16.00;99.90
20654;DHT22;21083;50.898;4.902;2022-10-31T00:39:22;16.00;99.90
20654;DHT22;21083;50.898;4.902;2022-10-31T00:41:49;15.90;99.90
20654;DHT22;21083;50.898;4.902;2022-10-31T00:44:17;15.90;99.90
20654;DHT22;21083;50.898;4.902;2022-10-31T00:46:44;15.80;99.90
20654;DHT22;21083;50.898;4.902;2022-10-31T00:49:10;15.90;99.90
20654;DHT22;21083;50.898;4.902;2022-10-31T00:51:38;15.80;99.90
20654;DHT22;21083;50.898;4.902;2022-10-31T00:54:05;15.80;99.90
20654;DHT22;21083;50.898;4.902;2022-10-31T00:56:31;15.80;99.90
20654;DHT22;21083;50.898;4.902;2022-10-31T00:58:58;15.90;99.90
20654;DHT22;21083;50.898;4.902;2022-10-31T01:01:26;15.90;99.90
20654;DHT22;21083;50.898;4.902;2022-10-31T01:03:53;16.00;99.90
20654;DHT22;21083;50.898;4.902;2022-10-31T01:06:20;15.90;99.90
20654;DHT22;21083;50.898;4.902;2022-10-31T01:08:47;15.80;99.90
20654;DHT22;21083;50.898;4.902;2022-10-31T01:11:17;15.80;99.90
20654;DHT22;21083;50.898;4.902;2022-10-31T01:13:44;15.80;99.90
20654;DHT22;21083;50.898;4.902;2022-10-31T01:16:13;15.80;99.90
20654;DHT22;21083;50.898;4.902;2022-10-31T01:18:41;15.80;99.90
20654;DHT22;21083;50.898;4.902;2022-10-31T01:21:11;15.80;99.90
20654;DHT22;21083;50.898;4.902;2022-10-31T01:23:38;15.70;99.90
20654;DHT22;21083;50.898;4.902;2022-10-31T01:26:08;15.70;99.90
20654;DHT22;21083;50.898;4.902;2022-10-31T01:28:37;15.70;99.90
20654;DHT22;21083;50.898;4.902;2022-10-31T01:31:07;15.60;99.90
20654;DHT22;21083;50.898;4.902;2022-10-31T01:33:34;15.60;99.90
20654;DHT22;21083;50.898;4.902;2022-10-31T01:36:12;15.60;99.90
20654;DHT22;21083;50.898;4.902;2022-10-31T01:38:39;15.60;99.90
20654;DHT22;21083;50.898;4.902;2022-10-31T01:41:06;15.60;99.90
20654;DHT22;21083;50.898;4.902;2022-10-31T01:43:45;15.60;99.90
20654;DHT22;21083;50.898;4.902;2022-10-31T01:46:13;15.60;99.90
20654;DHT22;21083;50.898;4.902;2022-10-31T01:48:42;15.50;99.90
20654;DHT22;21083;50.898;4.902;2022-10-31T01:51:13;15.50;99.90
20654;DHT22;21083;50.898;4.902;2022-10-31T01:53:42;15.50;99.90
20654;DHT22;21083;50.898;4.902;2022-10-31T01:56:09;15.50;99.90
20654;DHT22;21083;50.898;4.902;2022-10-31T01:58:36;15.40;99.90
20654;DHT22;21083;50.898;4.902;2022-10-31T02:01:04;15.40;99.90
20654;DHT22;21083;50.898;4.902;2022-10-31T02:03:31;15.40;99.90
20654;DHT22;21083;50.898;4.902;2022-10-31T02:05:58;15.40;99.90
20654;DHT22;21083;50.898;4.902;2022-10-31T02:08:28;15.40;99.90
20654;DHT22;21083;50.898;4.902;2022-10-31T02:10:57;15.40;99.90
20654;DHT22;21083;50.898;4.902;2022-10-31T02:13:25;15.40;99.90
20654;DHT22;21083;50.898;4.902;2022-10-31T02:15:54;15.50;99.90
20654;DHT22;21083;50.898;4.902;2022-10-31T02:18:22;15.50;99.90
20654;DHT22;21083;50.898;4.902;2022-10-31T02:20:57;15.50;99.90
20654;DHT22;21083;50.898;4.902;2022-10-31T02:26:58;15.50;99.90
20654;DHT22;21083;50.898;4.902;2022-10-31T02:32:38;15.40;99.90
20654;DHT22;21083;50.898;4.902;2022-10-31T02:35:11;15.30;99.90
20654;DHT22;21083;50.898;4.902;2022-10-31T02:37:47;15.30;99.90
20654;DHT22;21083;50.898;4.902;2022-10-31T02:40:19;15.30;99.90
20654;DHT22;21083;50.898;4.902;2022-10-31T02:42:54;15.30;99.90
20654;DHT22;21083;50.898;4.902;2022-10-31T02:45:28;15.20;99.90
20654;DHT22;21083;50.898;4.902;2022-10-31T02:48:00;15.20;99.90
20654;DHT22;21083;50.898;4.902;2022-10-31T02:50:30;15.20;99.90
20654;DHT22;21083;50.898;4.902;2022-10-31T02:52:58;15.10;99.90
20654;DHT22;21083;50.898;4.902;2022-10-31T02:55:59;15.10;99.90
20654;DHT22;21083;50.898;4.902;2022-10-31T02:58:29;15.00;99.90
20654;DHT22;21083;50.898;4.902;2022-10-31T03:04:16;15.00;99.90
20654;DHT22;21083;50.898;4.902;2022-10-31T03:06:50;14.90;99.90
20654;DHT22;21083;50.898;4.902;2022-10-31T03:09:24;15.00;99.90
20654;DHT22;21083;50.898;4.902;2022-10-31T03:11:58;15.00;99.90
20654;DHT22;21083;50.898;4.902;2022-10-31T03:14:32;15.10;99.90
20654;DHT22;21083;50.898;4.902;2022-10-31T03:17:05;15.10;99.90
20654;DHT22;21083;50.898;4.902;2022-10-31T03:19:38;15.10;99.90
20654;DHT22;21083;50.898;4.902;2022-10-31T03:22:10;15.10;99.90
20654;DHT22;21083;50.898;4.902;2022-10-31T03:24:42;15.20;99.90
20654;DHT22;21083;50.898;4.902;2022-10-31T03:27:12;15.10;99.90
20654;DHT22;21083;50.898;4.902;2022-10-31T03:29:42;15.10;99.90
20654;DHT22;21083;50.898;4.902;2022-10-31T03:32:12;15.10;99.90
20654;DHT22;21083;50.898;4.902;2022-10-31T03:34:42;15.10;99.90
20654;DHT22;21083;50.898;4.902;2022-10-31T03:37:13;15.20;99.90
20654;DHT22;21083;50.898;4.902;2022-10-31T03:39:43;15.20;99.90
20654;DHT22;21083;50.898;4.902;2022-10-31T03:42:13;15.20;99.90
20654;DHT22;21083;50.898;4.902;2022-10-31T03:44:44;15.20;99.90
20654;DHT22;21083;50.898;4.902;2022-10-31T03:47:13;15.20;99.90
20654;DHT22;21083;50.898;4.902;2022-10-31T03:49:41;15.20;99.90
20654;DHT22;21083;50.898;4.902;2022-10-31T03:52:15;15.30;99.90
20654;DHT22;21083;50.898;4.902;2022-10-31T03:54:46;15.20;99.90
20654;DHT22;21083;50.898;4.902;2022-10-31T03:57:16;15.20;99.90
20654;DHT22;21083;50.898;4.902;2022-10-31T03:59:48;15.20;99.90
20654;DHT22;21083;50.898;4.902;2022-10-31T04:02:21;15.20;99.90
20654;DHT22;21083;50.898;4.902;2022-10-31T04:04:50;15.20;99.90
20654;DHT22;21083;50.898;4.902;2022-10-31T04:07:18;15.20;99.90
20654;DHT22;21083;50.898;4.902;2022-10-31T04:09:48;15.20;99.90
20654;DHT22;21083;50.898;4.902;2022-10-31T04:12:16;15.10;99.90
20654;DHT22;21083;50.898;4.902;2022-10-31T04:14:47;15.10;99.90
20654;DHT22;21083;50.898;4.902;2022-10-31T04:17:16;15.00;99.90
20654;DHT22;21083;50.898;4.902;2022-10-31T04:19:44;15.00;99.90
20654;DHT22;21083;50.898;4.902;2022-10-31T04:22:12;14.90;99.90
20654;DHT22;21083;50.898;4.902;2022-10-31T04:24:40;14.90;99.90
20654;DHT22;21083;50.898;4.902;2022-10-31T04:27:07;14.80;99.90
20654;DHT22;21083;50.898;4.902;2022-10-31T04:29:34;14.80;99.90
20654;DHT22;21083;50.898;4.902;2022-10-31T04:32:00;14.80;99.90
20654;DHT22;21083;50.898;4.902;2022-10-31T04:34:27;14.70;99.90
20654;DHT22;21083;50.898;4.902;2022-10-31T04:36:54;14.70;99.90
20654;DHT22;21083;50.898;4.902;2022-10-31T04:39:22;14.60;99.90
20654;DHT22;21083;50.898;4.902;2022-10-31T04:41:49;14.60;99.90
20654;DHT22;21083;50.898;4.902;2022-10-31T04:44:16;14.60;99.90
20654;DHT22;21083;50.898;4.902;2022-10-31T04:46:43;14.50;99.90
20654;DHT22;21083;50.898;4.902;2022-10-31T04:49:10;14.50;99.90
20654;DHT22;21083;50.898;4.902;2022-10-31T04:51:37;14.50;99.90
20654;DHT22;21083;50.898;4.902;2022-10-31T04:54:04;14.50;99.90
20654;DHT22;21083;50.898;4.902;2022-10-31T04:56:32;14.40;99.90
20654;DHT22;21083;50.898;4.902;2022-10-31T04:58:59;14.40;99.90
20654;DHT22;21083;50.898;4.902;2022-10-31T05:01:26;14.40;99.90
20654;DHT22;21083;50.898;4.902;2022-10-31T05:03:53;14.30;99.90
20654;DHT22;21083;50.898;4.902;2022-10-31T05:06:20;14.30;99.90
20654;DHT22;21083;50.898;4.902;2022-10-31T05:08:47;14.40;99.90
20654;DHT22;21083;50.898;4.902;2022-10-31T05:11:14;14.40;99.90
20654;DHT22;21083;50.898;4.902;2022-10-31T05:13:42;14.40;99.90
20654;DHT22;21083;50.898;4.902;2022-10-31T05:16:09;14.30;99.90
20654;DHT22;21083;50.898;4.902;2022-10-31T05:18:36;14.30;99.90
20654;DHT22;21083;50.898;4.902;2022-10-31T05:21:03;14.30;99.90
20654;DHT22;21083;50.898;4.902;2022-10-31T05:23:30;14.30;99.90
20654;DHT22;21083;50.898;4.902;2022-10-31T05:25:57;14.30;99.90
20654;DHT22;21083;50.898;4.902;2022-10-31T05:28:23;14.30;99.90
20654;DHT22;21083;50.898;4.902;2022-10-31T05:30:52;14.30;99.90
20654;DHT22;21083;50.898;4.902;2022-10-31T05:33:19;14.20;99.90
20654;DHT22;21083;50.898;4.902;2022-10-31T05:35:45;14.20;99.90
20654;DHT22;21083;50.898;4.902;2022-10-31T05:38:12;14.20;99.90
20654;DHT22;21083;50.898;4.902;2022-10-31T05:40:39;14.10;99.90
20654;DHT22;21083;50.898;4.902;2022-10-31T05:43:06;14.10;99.90
20654;DHT22;21083;50.898;4.902;2022-10-31T05:45:33;14.10;99.90
20654;DHT22;21083;50.898;4.902;2022-10-31T05:48:02;14.10;99.90
20654;DHT22;21083;50.898;4.902;2022-10-31T05:50:31;14.10;99.90
20654;DHT22;21083;50.898;4.902;2022-10-31T05:52:59;14.10;99.90
20654;DHT22;21083;50.898;4.902;2022-10-31T05:55:27;14.10;99.90
20654;DHT22;21083;50.898;4.902;2022-10-31T05:57:54;14.10;99.90
20654;DHT22;21083;50.898;4.902;2022-10-31T06:00:22;14.10;99.90
20654;DHT22;21083;50.898;4.902;2022-10-31T06:02:49;14.20;99.90
20654;DHT22;21083;50.898;4.902;2022-10-31T06:05:17;14.20;99.90
20654;DHT22;21083;50.898;4.902;2022-10-31T06:07:44;14.20;99.90
20654;DHT22;21083;50.898;4.902;2022-10-31T06:10:11;14.10;99.90
20654;DHT22;21083;50.898;4.902;2022-10-31T06:12:38;14.20;99.90
20654;DHT22;21083;50.898;4.902;2022-10-31T06:15:07;14.20;99.90
20654;DHT22;21083;50.898;4.902;2022-10-31T06:17:34;14.10;99.90
20654;DHT22;21083;50.898;4.902;2022-10-31T06:20:02;14.10;99.90
20654;DHT22;21083;50.898;4.902;2022-10-31T06:22:30;14.10;99.90
20654;DHT22;21083;50.898;4.902;2022-10-31T06:24:57;14.10;99.90
20654;DHT22;21083;50.898;4.902;2022-10-31T06:27:24;14.10;99.90
20654;DHT22;21083;50.898;4.902;2022-10-31T06:29:51;14.10;99.90
20654;DHT22;21083;50.898;4.902;2022-10-31T06:32:18;14.10;99.90
20654;DHT22;21083;50.898;4.902;2022-10-31T06:34:45;14.10;99.90
20654;DHT22;21083;50.898;4.902;2022-10-31T06:37:14;14.00;99.90
20654;DHT22;21083;50.898;4.902;2022-10-31T06:39:42;14.00;99.90
20654;DHT22;21083;50.898;4.902;2022-10-31T06:42:09;14.00;99.90
20654;DHT22;21083;50.898;4.902;2022-10-31T06:44:36;14.00;99.90
20654;DHT22;21083;50.898;4.902;2022-10-31T06:47:03;14.00;99.90
20654;DHT22;21083;50.898;4.902;2022-10-31T06:49:31;14.00;99.90
20654;DHT22;21083;50.898;4.902;2022-10-31T06:51:58;14.00;99.90
20654;DHT22;21083;50.898;4.902;2022-10-31T06:54:25;14.00;99.90
20654;DHT22;21083;50.898;4.902;2022-10-31T06:56:53;14.00;99.90
20654;DHT22;21083;50.898;4.902;2022-10-31T06:59:20;14.10;99.90
20654;DHT22;21083;50.898;4.902;2022-10-31T07:01:47;14.10;99.90
20654;DHT22;21083;50.898;4.902;2022-10-31T07:04:14;14.10;99.90
20654;DHT22;21083;50.898;4.902;2022-10-31T07:06:41;14.00;99.90
20654;DHT22;21083;50.898;4.902;2022-10-31T07:09:08;14.00;99.90
20654;DHT22;21083;50.898;4.902;2022-10-31T07:11:34;14.10;99.90
20654;DHT22;21083;50.898;4.902;2022-10-31T07:14:03;14.10;99.90
20654;DHT22;21083;50.898;4.902;2022-10-31T07:16:30;14.00;99.90
20654;DHT22;21083;50.898;4.902;2022-10-31T07:18:56;14.00;99.90
20654;DHT22;21083;50.898;4.902;2022-10-31T07:21:23;14.00;99.90
20654;DHT22;21083;50.898;4.902;2022-10-31T07:23:50;14.00;99.90
20654;DHT22;21083;50.898;4.902;2022-10-31T07:26:17;14.10;99.90
20654;DHT22;21083;50.898;4.902;2022-10-31T07:28:45;14.20;99.90
20654;DHT22;21083;50.898;4.902;2022-10-31T07:31:14;14.20;99.90
20654;DHT22;21083;50.898;4.902;2022-10-31T07:33:41;14.20;99.90
20654;DHT22;21083;50.898;4.902;2022-10-31T07:36:08;14.30;99.90
20654;DHT22;21083;50.898;4.902;2022-10-31T07:38:35;14.30;99.90
20654;DHT22;21083;50.898;4.902;2022-10-31T07:41:02;14.30;99.90
20654;DHT22;21083;50.898;4.902;2022-10-31T07:43:28;14.30;99.90
20654;DHT22;21083;50.898;4.902;2022-10-31T07:45:55;14.40;99.90
20654;DHT22;21083;50.898;4.902;2022-10-31T07:48:24;14.40;99.90
20654;DHT22;21083;50.898;4.902;2022-10-31T07:50:51;14.40;99.90
20654;DHT22;21083;50.898;4.902;2022-10-31T07:53:17;14.40;99.90
20654;DHT22;21083;50.898;4.902;2022-10-31T07:55:44;14.50;99.90
20654;DHT22;21083;50.898;4.902;2022-10-31T07:58:14;14.40;99.90
20654;DHT22;21083;50.898;4.902;2022-10-31T08:00:42;14.40;99.90
20654;DHT22;21083;50.898;4.902;2022-10-31T08:03:11;14.50;99.90
20654;DHT22;21083;50.898;4.902;2022-10-31T08:05:39;14.50;99.90
20654;DHT22;21083;50.898;4.902;2022-10-31T08:08:07;14.40;99.90
20654;DHT22;21083;50.898;4.902;2022-10-31T08:10:35;14.50;99.90
20654;DHT22;21083;50.898;4.902;2022-10-31T08:13:03;14.60;99.90
20654;DHT22;21083;50.898;4.902;2022-10-31T08:15:30;14.70;99.90
20654;DHT22;21083;50.898;4.902;2022-10-31T08:17:59;14.70;99.90
20654;DHT22;21083;50.898;4.902;2022-10-31T08:20:27;14.80;99.90
20654;DHT22;21083;50.898;4.902;2022-10-31T08:22:57;14.80;99.90
20654;DHT22;21083;50.898;4.902;2022-10-31T08:25:25;14.80;99.90
20654;DHT22;21083;50.898;4.902;2022-10-31T08:27:53;14.90;99.90
20654;DHT22;21083;50.898;4.902;2022-10-31T08:30:22;14.90;99.90
20654;DHT22;21083;50.898;4.902;2022-10-31T08:32:57;15.00;99.90
20654;DHT22;21083;50.898;4.902;2022-10-31T08:35:24;15.00;99.90
20654;DHT22;21083;50.898;4.902;2022-10-31T08:37:52;15.10;99.90
20654;DHT22;21083;50.898;4.902;2022-10-31T08:40:21;15.10;99.90
20654;DHT22;21083;50.898;4.902;2022-10-31T08:42:54;15.10;99.90
20654;DHT22;21083;50.898;4.902;2022-10-31T08:45:21;15.20;99.90
20654;DHT22;21083;50.898;4.902;2022-10-31T08:47:48;15.20;99.90
20654;DHT22;21083;50.898;4.902;2022-10-31T08:50:15;15.30;99.90
20654;DHT22;21083;50.898;4.902;2022-10-31T08:52:42;15.40;99.90
20654;DHT22;21083;50.898;4.902;2022-10-31T08:55:08;15.40;99.90
20654;DHT22;21083;50.898;4.902;2022-10-31T08:57:37;15.50;99.90
20654;DHT22;21083;50.898;4.902;2022-10-31T09:00:05;15.60;99.90
20654;DHT22;21083;50.898;4.902;2022-10-31T09:02:32;15.70;99.90
20654;DHT22;21083;50.898;4.902;2022-10-31T09:04:59;15.80;99.90
20654;DHT22;21083;50.898;4.902;2022-10-31T09:07:26;15.90;99.90
20654;DHT22;21083;50.898;4.902;2022-10-31T09:09:53;16.00;99.90
20654;DHT22;21083;50.898;4.902;2022-10-31T09:12:21;16.10;99.90
20654;DHT22;21083;50.898;4.902;2022-10-31T09:14:50;16.30;99.90
20654;DHT22;21083;50.898;4.902;2022-10-31T09:17:17;16.40;99.90
20654;DHT22;21083;50.898;4.902;2022-10-31T09:19:44;16.50;99.90
20654;DHT22;21083;50.898;4.902;2022-10-31T09:22:11;16.60;99.90
20654;DHT22;21083;50.898;4.902;2022-10-31T09:24:38;16.60;99.90
20654;DHT22;21083;50.898;4.902;2022-10-31T09:27:05;16.70;99.90
20654;DHT22;21083;50.898;4.902;2022-10-31T09:29:32;16.70;99.90
20654;DHT22;21083;50.898;4.902;2022-10-31T09:32:00;16.80;99.90
20654;DHT22;21083;50.898;4.902;2022-10-31T09:34:27;16.80;99.90
20654;DHT22;21083;50.898;4.902;2022-10-31T09:36:54;16.90;99.90
20654;DHT22;21083;50.898;4.902;2022-10-31T09:39:20;16.90;99.90
20654;DHT22;21083;50.898;4.902;2022-10-31T09:42:05;17.10;99.90
20654;DHT22;21083;50.898;4.902;2022-10-31T09:44:46;17.00;99.90
20654;DHT22;21083;50.898;4.902;2022-10-31T09:47:23;17.00;99.90
20654;DHT22;21083;50.898;4.902;2022-10-31T09:50:06;17.00;99.90
20654;DHT22;21083;50.898;4.902;2022-10-31T09:52:39;16.90;99.90
20654;DHT22;21083;50.898;4.902;2022-10-31T09:55:14;16.90;99.90
20654;DHT22;21083;50.898;4.902;2022-10-31T09:57:44;16.90;99.90
20654;DHT22;21083;50.898;4.902;2022-10-31T10:00:16;16.90;99.90
20654;DHT22;21083;50.898;4.902;2022-10-31T10:02:47;16.90;99.90
20654;DHT22;21083;50.898;4.902;2022-10-31T10:05:19;17.00;99.90
20654;DHT22;21083;50.898;4.902;2022-10-31T10:07:54;17.00;99.90
20654;DHT22;21083;50.898;4.902;2022-10-31T10:10:29;17.10;99.90
20654;DHT22;21083;50.898;4.902;2022-10-31T10:13:19;17.20;99.90
20654;DHT22;21083;50.898;4.902;2022-10-31T10:15:57;17.10;99.90
20654;DHT22;21083;50.898;4.902;2022-10-31T10:18:41;17.20;99.90
20654;DHT22;21083;50.898;4.902;2022-10-31T10:21:20;17.10;99.90
20654;DHT22;21083;50.898;4.902;2022-10-31T10:23:56;17.10;99.90
20654;DHT22;21083;50.898;4.902;2022-10-31T10:26:30;17.10;99.90
20654;DHT22;21083;50.898;4.902;2022-10-31T10:29:01;17.20;99.90
20654;DHT22;21083;50.898;4.902;2022-10-31T10:31:35;17.20;99.90
20654;DHT22;21083;50.898;4.902;2022-10-31T10:34:11;17.20;99.90
20654;DHT22;21083;50.898;4.902;2022-10-31T10:36:44;17.30;99.90
20654;DHT22;21083;50.898;4.902;2022-10-31T10:39:15;17.40;99.90
20654;DHT22;21083;50.898;4.902;2022-10-31T10:41:47;17.50;99.90
20654;DHT22;21083;50.898;4.902;2022-10-31T10:44:28;17.70;99.90
20654;DHT22;21083;50.898;4.902;2022-10-31T10:47:12;17.80;99.90
20654;DHT22;21083;50.898;4.902;2022-10-31T10:49:58;18.00;99.90
20654;DHT22;21083;50.898;4.902;2022-10-31T10:52:30;18.10;99.90
20654;DHT22;21083;50.898;4.902;2022-10-31T10:55:03;18.30;99.90
20654;DHT22;21083;50.898;4.902;2022-10-31T10:57:45;18.40;99.90
20654;DHT22;21083;50.898;4.902;2022-10-31T11:00:18;18.50;99.90
20654;DHT22;21083;50.898;4.902;2022-10-31T11:02:45;18.60;99.90
20654;DHT22;21083;50.898;4.902;2022-10-31T11:05:21;18.70;99.90
20654;DHT22;21083;50.898;4.902;2022-10-31T11:07:49;18.80;99.90
20654;DHT22;21083;50.898;4.902;2022-10-31T11:10:16;19.10;99.90
20654;DHT22;21083;50.898;4.902;2022-10-31T11:12:45;19.20;99.90
20654;DHT22;21083;50.898;4.902;2022-10-31T11:15:25;19.50;99.90
20654;DHT22;21083;50.898;4.902;2022-10-31T11:17:54;19.70;99.90
20654;DHT22;21083;50.898;4.902;2022-10-31T11:20:27;19.90;99.90
20654;DHT22;21083;50.898;4.902;2022-10-31T11:23:20;20.00;99.90
20654;DHT22;21083;50.898;4.902;2022-10-31T11:25:52;20.10;99.90
20654;DHT22;21083;50.898;4.902;2022-10-31T11:28:20;20.10;99.90
20654;DHT22;21083;50.898;4.902;2022-10-31T11:30:50;20.30;99.90
20654;DHT22;21083;50.898;4.902;2022-10-31T11:33:24;20.50;99.90
20654;DHT22;21083;50.898;4.902;2022-10-31T11:35:53;20.60;99.90
20654;DHT22;21083;50.898;4.902;2022-10-31T11:38:24;20.80;99.90
20654;DHT22;21083;50.898;4.902;2022-10-31T11:40:56;20.90;99.90
20654;DHT22;21083;50.898;4.902;2022-10-31T11:43:24;20.90;99.90
20654;DHT22;21083;50.898;4.902;2022-10-31T11:45:52;21.20;99.90
20654;DHT22;21083;50.898;4.902;2022-10-31T11:48:20;21.30;99.90
20654;DHT22;21083;50.898;4.902;2022-10-31T11:50:49;21.40;99.90
20654;DHT22;21083;50.898;4.902;2022-10-31T11:53:20;21.50;99.90
20654;DHT22;21083;50.898;4.902;2022-10-31T11:55:47;21.80;99.90
20654;DHT22;21083;50.898;4.902;2022-10-31T11:58:26;22.40;99.90
20654;DHT22;21083;50.898;4.902;2022-10-31T12:00:54;23.10;99.90
20654;DHT22;21083;50.898;4.902;2022-10-31T12:06:15;24.10;99.90
20654;DHT22;21083;50.898;4.902;2022-10-31T12:08:45;24.50;99.90
20654;DHT22;21083;50.898;4.902;2022-10-31T12:11:26;24.90;99.90
20654;DHT22;21083;50.898;4.902;2022-10-31T12:14:04;25.10;99.90
20654;DHT22;21083;50.898;4.902;2022-10-31T12:16:36;25.80;99.90
20654;DHT22;21083;50.898;4.902;2022-10-31T12:19:12;26.10;99.90
20654;DHT22;21083;50.898;4.902;2022-10-31T12:24:48;26.70;99.90
20654;DHT22;21083;50.898;4.902;2022-10-31T12:27:27;27.10;99.90
20654;DHT22;21083;50.898;4.902;2022-10-31T12:30:10;27.40;99.90
20654;DHT22;21083;50.898;4.902;2022-10-31T12:32:50;27.80;99.90
20654;DHT22;21083;50.898;4.902;2022-10-31T12:35:47;28.20;99.90
20654;DHT22;21083;50.898;4.902;2022-10-31T12:38:39;28.60;99.90
20654;DHT22;21083;50.898;4.902;2022-10-31T12:41:24;29.00;99.90
20654;DHT22;21083;50.898;4.902;2022-10-31T12:44:00;29.30;99.90
20654;DHT22;21083;50.898;4.902;2022-10-31T12:46:44;29.10;99.90
20654;DHT22;21083;50.898;4.902;2022-10-31T12:49:40;29.20;99.90
20654;DHT22;21083;50.898;4.902;2022-10-31T12:52:35;29.70;99.90
20654;DHT22;21083;50.898;4.902;2022-10-31T12:55:29;30.20;99.90
20654;DHT22;21083;50.898;4.902;2022-10-31T12:58:03;30.40;99.90
20654;DHT22;21083;50.898;4.902;2022-10-31T13:00:38;30.50;99.90
20654;DHT22;21083;50.898;4.902;2022-10-31T13:03:18;29.70;99.90
20654;DHT22;21083;50.898;4.902;2022-10-31T13:05:49;29.30;99.90
20654;DHT22;21083;50.898;4.902;2022-10-31T13:08:18;29.50;99.90
20654;DHT22;21083;50.898;4.902;2022-10-31T13:10:49;29.00;99.90
20654;DHT22;21083;50.898;4.902;2022-10-31T13:13:23;28.60;99.90
20654;DHT22;21083;50.898;4.902;2022-10-31T13:15:54;27.80;99.90
20654;DHT22;21083;50.898;4.902;2022-10-31T13:18:27;27.20;99.90
20654;DHT22;21083;50.898;4.902;2022-10-31T13:20:55;26.70;99.90
20654;DHT22;21083;50.898;4.902;2022-10-31T13:23:27;26.50;99.90
20654;DHT22;21083;50.898;4.902;2022-10-31T13:25:57;25.80;99.90
20654;DHT22;21083;50.898;4.902;2022-10-31T13:28:31;25.30;99.90
20654;DHT22;21083;50.898;4.902;2022-10-31T13:31:01;25.00;99.90
20654;DHT22;21083;50.898;4.902;2022-10-31T13:33:31;24.60;99.90
20654;DHT22;21083;50.898;4.902;2022-10-31T13:36:19;24.50;99.90
20654;DHT22;21083;50.898;4.902;2022-10-31T13:38:51;24.30;99.90
20654;DHT22;21083;50.898;4.902;2022-10-31T13:41:28;24.20;99.90
20654;DHT22;21083;50.898;4.902;2022-10-31T13:44:02;24.00;99.90
20654;DHT22;21083;50.898;4.902;2022-10-31T13:46:36;23.80;99.90
20654;DHT22;21083;50.898;4.902;2022-10-31T13:49:04;23.90;99.90
20654;DHT22;21083;50.898;4.902;2022-10-31T13:51:32;24.00;99.90
20654;DHT22;21083;50.898;4.902;2022-10-31T13:54:01;24.30;99.90
20654;DHT22;21083;50.898;4.902;2022-10-31T13:56:33;24.80;99.90
20654;DHT22;21083;50.898;4.902;2022-10-31T13:59:19;25.40;99.90
20654;DHT22;21083;50.898;4.902;2022-10-31T14:01:50;26.20;99.90
20654;DHT22;21083;50.898;4.902;2022-10-31T14:04:19;26.80;99.90
20654;DHT22;21083;50.898;4.902;2022-10-31T14:07:04;27.00;99.90
20654;DHT22;21083;50.898;4.902;2022-10-31T14:09:33;27.10;99.90
20654;DHT22;21083;50.898;4.902;2022-10-31T14:12:04;27.20;99.90
20654;DHT22;21083;50.898;4.902;2022-10-31T14:14:42;27.60;99.90
20654;DHT22;21083;50.898;4.902;2022-10-31T14:17:21;28.00;99.90
20654;DHT22;21083;50.898;4.902;2022-10-31T14:20:33;28.40;99.90
20654;DHT22;21083;50.898;4.902;2022-10-31T14:23:11;29.30;99.90
20654;DHT22;21083;50.898;4.902;2022-10-31T14:25:38;30.40;99.90
20654;DHT22;21083;50.898;4.902;2022-10-31T14:28:19;31.10;99.90
20654;DHT22;21083;50.898;4.902;2022-10-31T14:30:54;31.60;99.90
20654;DHT22;21083;50.898;4.902;2022-10-31T14:33:22;32.00;99.90
20654;DHT22;21083;50.898;4.902;2022-10-31T14:35:56;32.20;99.90
20654;DHT22;21083;50.898;4.902;2022-10-31T14:38:40;32.10;99.90
20654;DHT22;21083;50.898;4.902;2022-10-31T14:41:32;31.80;99.90
20654;DHT22;21083;50.898;4.902;2022-10-31T14:47:05;31.20;99.90
20654;DHT22;21083;50.898;4.902;2022-10-31T14:49:55;30.40;99.90
20654;DHT22;21083;50.898;4.902;2022-10-31T14:52:26;29.50;99.90
20654;DHT22;21083;50.898;4.902;2022-10-31T14:54:55;28.60;99.90
20654;DHT22;21083;50.898;4.902;2022-10-31T14:57:29;28.30;99.90
20654;DHT22;21083;50.898;4.902;2022-10-31T14:59:57;28.00;99.90
20654;DHT22;21083;50.898;4.902;2022-10-31T15:02:31;27.60;99.90
20654;DHT22;21083;50.898;4.902;2022-10-31T15:05:00;27.30;99.90
20654;DHT22;21083;50.898;4.902;2022-10-31T15:07:28;27.20;99.90
20654;DHT22;21083;50.898;4.902;2022-10-31T15:09:56;27.10;99.90
20654;DHT22;21083;50.898;4.902;2022-10-31T15:12:25;26.70;99.90
20654;DHT22;21083;50.898;4.902;2022-10-31T15:14:53;26.10;99.90
20654;DHT22;21083;50.898;4.902;2022-10-31T15:17:20;25.80;99.90
20654;DHT22;21083;50.898;4.902;2022-10-31T15:19:50;25.70;99.90
20654;DHT22;21083;50.898;4.902;2022-10-31T15:22:19;25.60;99.90
20654;DHT22;21083;50.898;4.902;2022-10-31T15:24:48;25.50;99.90
20654;DHT22;21083;50.898;4.902;2022-10-31T15:27:22;25.40;99.90
20654;DHT22;21083;50.898;4.902;2022-10-31T15:29:52;25.30;99.90
20654;DHT22;21083;50.898;4.902;2022-10-31T15:32:20;24.90;99.90
20654;DHT22;21083;50.898;4.902;2022-10-31T15:34:50;24.40;99.90
20654;DHT22;21083;50.898;4.902;2022-10-31T15:37:19;24.00;99.90
20654;DHT22;21083;50.898;4.902;2022-10-31T15:39:47;23.50;99.90
20654;DHT22;21083;50.898;4.902;2022-10-31T15:42:20;23.10;99.90
20654;DHT22;21083;50.898;4.902;2022-10-31T15:44:51;23.00;99.90
20654;DHT22;21083;50.898;4.902;2022-10-31T15:47:20;22.60;99.90
20654;DHT22;21083;50.898;4.902;2022-10-31T15:49:51;22.40;99.90
20654;DHT22;21083;50.898;4.902;2022-10-31T15:52:25;22.20;99.90
20654;DHT22;21083;50.898;4.902;2022-10-31T15:54:56;22.00;99.90
20654;DHT22;21083;50.898;4.902;2022-10-31T15:57:24;21.90;99.90
20654;DHT22;21083;50.898;4.902;2022-10-31T15:59:53;21.60;99.90
20654;DHT22;21083;50.898;4.902;2022-10-31T16:02:21;21.50;99.90
20654;DHT22;21083;50.898;4.902;2022-10-31T16:04:53;21.30;99.90
20654;DHT22;21083;50.898;4.902;2022-10-31T16:07:22;21.20;99.90
20654;DHT22;21083;50.898;4.902;2022-10-31T16:09:51;21.00;99.90